createdAt,value
2018-06-27T00:02:10.519Z,12.24
2018-06-27T00:04:39.721Z,12.11
2018-06-27T00:07:08.888Z,12.12
2018-06-27T00:09:39.347Z,12.17
2018-06-27T00:12:08.882Z,12.14
2018-06-27T00:14:38.030Z,12.33
2018-06-27T00:17:07.294Z,12.36
2018-06-27T00:19:36.427Z,12.29
2018-06-27T00:22:05.648Z,12.20
2018-06-27T00:24:34.788Z,12.10
2018-06-27T00:27:03.931Z,12.17
2018-06-27T00:29:33.059Z,12.17
2018-06-27T00:32:02.200Z,12.06
2018-06-27T00:34:31.315Z,11.89
2018-06-27T00:37:00.471Z,11.84
2018-06-27T00:39:29.653Z,11.88
2018-06-27T00:41:58.790Z,12.02
2018-06-27T00:44:27.907Z,12.08
2018-06-27T00:46:57.094Z,12.06
2018-06-27T00:49:26.235Z,11.94
2018-06-27T00:51:55.342Z,11.91
2018-06-27T00:54:24.804Z,11.90
2018-06-27T00:56:54.044Z,11.84
2018-06-27T00:59:23.338Z,11.83
2018-06-27T01:01:53.134Z,11.82
2018-06-27T01:04:23.031Z,11.91
2018-06-27T01:06:53.043Z,11.92
2018-06-27T01:09:22.831Z,11.91
2018-06-27T01:11:52.423Z,11.86
2018-06-27T01:14:21.938Z,11.84
2018-06-27T01:16:51.187Z,11.79
2018-06-27T01:19:20.870Z,11.81
2018-06-27T01:21:54.968Z,11.68
2018-06-27T01:24:24.268Z,11.61
2018-06-27T01:26:53.915Z,11.56
2018-06-27T01:29:23.870Z,11.53
2018-06-27T01:31:54.401Z,11.39
2018-06-27T01:34:23.743Z,11.31
2018-06-27T01:36:53.591Z,11.49
2018-06-27T01:39:23.330Z,11.79
2018-06-27T01:41:52.592Z,11.56
2018-06-27T01:44:22.442Z,11.36
2018-06-27T01:46:52.351Z,11.30
2018-06-27T01:49:22.175Z,11.44
2018-06-27T01:51:52.162Z,11.60
2018-06-27T01:54:21.538Z,11.61
2018-06-27T01:56:50.927Z,11.53
2018-06-27T01:59:20.151Z,11.48
2018-06-27T02:01:50.055Z,11.46
2018-06-27T02:04:19.242Z,11.40
2018-06-27T02:06:49.122Z,11.37
2018-06-27T02:09:19.087Z,11.33
2018-06-27T02:11:49.123Z,11.26
2018-06-27T02:14:18.750Z,11.05
2018-06-27T02:16:48.142Z,11.15
2018-06-27T02:19:17.487Z,11.19
2018-06-27T02:21:47.842Z,11.16
2018-06-27T02:24:17.226Z,11.16
2018-06-27T02:26:46.522Z,11.12
2018-06-27T02:29:16.054Z,11.16
2018-06-27T02:31:45.436Z,11.14
2018-06-27T02:34:15.060Z,10.99
2018-06-27T02:36:44.383Z,11.03
2018-06-27T02:39:13.730Z,10.95
2018-06-27T02:41:43.135Z,10.95
2018-06-27T02:44:13.111Z,10.88
2018-06-27T02:46:42.475Z,10.93
2018-06-27T02:49:11.896Z,10.83
2018-06-27T02:51:40.943Z,10.69
2018-06-27T02:54:10.066Z,10.68
2018-06-27T02:56:39.261Z,10.76
2018-06-27T02:59:08.395Z,10.81
2018-06-27T03:01:37.592Z,10.79
2018-06-27T03:04:06.727Z,10.82
2018-06-27T03:06:35.835Z,10.71
2018-06-27T03:09:08.364Z,10.61
2018-06-27T03:11:37.575Z,10.59
2018-06-27T03:14:07.018Z,10.60
2018-06-27T03:16:36.415Z,10.83
2018-06-27T03:19:05.309Z,10.86
2018-06-27T03:21:34.403Z,10.73
2018-06-27T03:24:04.467Z,10.69
2018-06-27T03:26:33.698Z,10.50
2018-06-27T03:29:03.369Z,10.59
2018-06-27T03:31:33.000Z,10.50
2018-06-27T03:34:02.239Z,10.66
2018-06-27T03:36:31.379Z,10.72
2018-06-27T03:39:00.567Z,10.69
2018-06-27T03:41:29.683Z,10.63
2018-06-27T03:43:58.799Z,10.75
2018-06-27T03:46:28.142Z,10.81
2018-06-27T03:48:57.316Z,10.78
2018-06-27T03:51:26.444Z,10.73
2018-06-27T03:53:57.603Z,10.79
2018-06-27T03:56:27.388Z,10.92
2018-06-27T03:58:57.763Z,10.91
2018-06-27T04:01:27.322Z,10.98
2018-06-27T04:03:56.627Z,11.10
2018-06-27T04:06:26.435Z,11.47
2018-06-27T04:08:55.802Z,11.68
2018-06-27T04:11:25.359Z,11.67
2018-06-27T04:13:54.664Z,11.75
2018-06-27T04:16:23.743Z,11.71
2018-06-27T04:18:52.875Z,11.41
2018-06-27T04:21:22.038Z,11.46
2018-06-27T04:23:52.422Z,11.49
2018-06-27T04:26:21.538Z,11.51
2018-06-27T04:28:50.678Z,11.58
2018-06-27T04:31:19.784Z,11.56
2018-06-27T04:33:48.903Z,11.60
2018-06-27T04:36:18.040Z,11.88
2018-06-27T04:38:47.135Z,11.92
2018-06-27T04:41:16.915Z,11.94
2018-06-27T04:43:46.251Z,12.15
2018-06-27T04:46:15.982Z,12.35
2018-06-27T04:48:45.262Z,12.83
2018-06-27T04:51:14.438Z,13.59
2018-06-27T04:53:43.930Z,14.05
2018-06-27T04:56:13.082Z,14.03
2018-06-27T04:58:42.247Z,13.98
2018-06-27T05:01:11.331Z,14.18
2018-06-27T05:03:40.461Z,14.49
2018-06-27T05:06:09.571Z,14.65
2018-06-27T05:08:39.412Z,14.87
2018-06-27T05:11:09.440Z,15.49
2018-06-27T05:13:38.723Z,15.50
2018-06-27T05:16:08.003Z,15.89
2018-06-27T05:18:37.278Z,15.84
2018-06-27T05:21:06.534Z,16.02
2018-06-27T05:23:35.712Z,16.50
2018-06-27T05:26:05.415Z,16.66
2018-06-27T05:28:34.532Z,16.93
2018-06-27T05:31:03.662Z,17.02
2018-06-27T05:33:32.818Z,17.32
2018-06-27T05:36:01.919Z,18.26
2018-06-27T05:38:31.095Z,17.92
2018-06-27T05:41:00.320Z,17.53
2018-06-27T05:43:29.447Z,17.73
2018-06-27T05:45:58.627Z,18.12
2018-06-27T05:48:28.171Z,18.73
2018-06-27T05:50:58.087Z,18.66
2018-06-27T05:53:27.906Z,18.50
2018-06-27T05:55:57.226Z,18.82
2018-06-27T05:58:27.162Z,19.85
2018-06-27T06:00:55.826Z,20.20
2018-06-27T06:03:25.179Z,20.31
2018-06-27T06:05:54.303Z,20.34
2018-06-27T06:08:23.451Z,20.24
2018-06-27T06:10:52.554Z,20.80
2018-06-27T06:13:21.819Z,21.31
2018-06-27T06:15:51.047Z,20.32
2018-06-27T06:18:20.143Z,19.79
2018-06-27T06:20:49.266Z,19.93
2018-06-27T06:23:18.381Z,19.61
2018-06-27T06:25:47.495Z,19.94
2018-06-27T06:28:16.625Z,20.33
2018-06-27T06:30:45.722Z,19.81
2018-06-27T06:33:14.742Z,21.66
2018-06-27T06:35:43.834Z,23.83
2018-06-27T06:38:12.927Z,24.68
2018-06-27T06:40:43.078Z,25.79
2018-06-27T06:43:12.159Z,25.76
2018-06-27T06:45:41.251Z,25.29
2018-06-27T06:48:11.087Z,25.59
2018-06-27T06:50:40.354Z,27.48
2018-06-27T06:53:09.634Z,28.54
2018-06-27T06:55:38.918Z,27.62
2018-06-27T06:58:08.161Z,27.55
2018-06-27T07:00:37.438Z,25.18
2018-06-27T07:03:07.434Z,26.88
2018-06-27T07:05:36.675Z,25.73
2018-06-27T07:08:05.784Z,28.06
2018-06-27T07:10:34.929Z,27.08
2018-06-27T07:13:04.079Z,26.56
2018-06-27T07:15:33.182Z,28.55
2018-06-27T07:18:02.322Z,29.08
2018-06-27T07:20:31.410Z,29.71
2018-06-27T07:23:00.586Z,29.05
2018-06-27T07:25:31.223Z,29.58
2018-06-27T07:28:00.826Z,29.04
2018-06-27T07:30:29.944Z,30.48
2018-06-27T07:32:59.811Z,30.55
2018-06-27T07:35:29.243Z,30.64
2018-06-27T07:37:58.626Z,30.94
2018-06-27T07:40:27.933Z,30.45
2018-06-27T07:42:59.127Z,30.89
2018-06-27T07:45:28.283Z,31.31
2018-06-27T07:47:57.394Z,31.02
2018-06-27T07:50:26.510Z,31.76
2018-06-27T07:52:55.614Z,29.96
2018-06-27T07:55:24.718Z,27.37
2018-06-27T07:57:53.842Z,28.47
2018-06-27T08:00:23.406Z,27.72
2018-06-27T08:02:52.490Z,27.83
2018-06-27T08:05:21.659Z,27.59
2018-06-27T08:07:50.775Z,27.88
2018-06-27T08:10:19.861Z,27.28
2018-06-27T08:12:49.025Z,29.26
2018-06-27T08:15:18.926Z,29.02
2018-06-27T08:17:48.388Z,28.79
2018-06-27T08:20:17.617Z,29.53
2018-06-27T08:22:46.974Z,30.72
2018-06-27T08:25:16.279Z,31.69
2018-06-27T08:27:45.678Z,32.62
2018-06-27T08:30:15.815Z,33.44
2018-06-27T08:32:46.254Z,31.91
2018-06-27T08:35:15.402Z,31.81
2018-06-27T08:37:44.487Z,31.10
2018-06-27T08:40:13.894Z,32.74
2018-06-27T08:42:43.015Z,31.04
2018-06-27T08:45:12.163Z,34.47
2018-06-27T08:47:41.254Z,34.46
2018-06-27T08:50:11.083Z,34.49
2018-06-27T08:52:40.287Z,32.20
2018-06-27T08:55:09.383Z,30.47
2018-06-27T08:57:38.903Z,31.68
2018-06-27T09:00:08.055Z,31.57
2018-06-27T09:02:37.147Z,31.41
2018-06-27T09:05:06.446Z,33.30
2018-06-27T09:07:35.595Z,33.44
2018-06-27T09:10:04.727Z,33.05
2018-06-27T09:12:33.863Z,31.52
2018-06-27T09:15:03.434Z,30.81
2018-06-27T09:17:32.782Z,29.52
2018-06-27T09:20:01.878Z,28.65
2018-06-27T09:22:30.989Z,27.80
2018-06-27T09:25:00.110Z,26.72
2018-06-27T09:27:29.225Z,25.80
2018-06-27T09:29:58.647Z,26.11
2018-06-27T09:32:28.158Z,25.28
2018-06-27T09:34:57.263Z,27.15
2018-06-27T09:37:26.395Z,30.09
2018-06-27T09:39:55.545Z,29.25
2018-06-27T09:42:30.387Z,27.44
2018-06-27T09:44:59.694Z,30.14
2018-06-27T09:47:30.242Z,30.65
2018-06-27T09:49:59.590Z,32.42
2018-06-27T09:52:29.267Z,33.96
2018-06-27T09:54:59.885Z,34.41
2018-06-27T09:57:29.008Z,32.77
2018-06-27T09:59:58.098Z,33.46
2018-06-27T10:02:27.267Z,34.86
2018-06-27T10:04:56.125Z,33.71
2018-06-27T10:07:25.252Z,31.32
2018-06-27T10:09:54.358Z,28.89
2018-06-27T10:12:23.471Z,28.02
2018-06-27T10:14:54.434Z,28.06
2018-06-27T10:17:24.063Z,28.22
2018-06-27T10:19:53.199Z,27.76
2018-06-27T10:22:22.294Z,27.99
2018-06-27T10:24:51.491Z,26.59
2018-06-27T10:27:20.586Z,27.04
2018-06-27T10:29:49.683Z,26.62
2018-06-27T10:32:18.807Z,26.76
2018-06-27T10:34:49.550Z,27.91
2018-06-27T10:37:18.647Z,27.14
2018-06-27T10:39:47.727Z,28.62
2018-06-27T10:42:16.963Z,32.73
2018-06-27T10:44:46.074Z,33.31
2018-06-27T10:47:15.694Z,30.02
2018-06-27T10:49:44.803Z,29.72
2018-06-27T10:52:13.923Z,27.53
2018-06-27T10:54:48.336Z,25.41
2018-06-27T10:57:18.986Z,24.33
2018-06-27T10:59:48.139Z,23.60
2018-06-27T11:02:17.621Z,23.31
2018-06-27T11:04:46.935Z,23.92
2018-06-27T11:07:16.031Z,24.99
2018-06-27T11:09:45.118Z,24.79
2018-06-27T11:12:14.228Z,28.25
2018-06-27T11:14:44.317Z,31.31
2018-06-27T11:17:13.412Z,34.05
2018-06-27T11:19:42.597Z,32.30
2018-06-27T11:22:11.682Z,33.39
2018-06-27T11:24:40.803Z,32.30
2018-06-27T11:27:09.950Z,29.51
2018-06-27T11:29:39.051Z,28.08
2018-06-27T11:32:09.363Z,27.48
2018-06-27T11:34:38.540Z,27.00
2018-06-27T11:37:07.618Z,28.21
2018-06-27T11:39:36.718Z,31.33
2018-06-27T11:42:05.907Z,31.43
2018-06-27T11:44:34.782Z,30.84
2018-06-27T11:47:03.919Z,28.53
2018-06-27T11:49:33.039Z,27.60
2018-06-27T11:52:02.143Z,27.59
2018-06-27T11:54:31.299Z,27.21
2018-06-27T11:57:00.403Z,28.99
2018-06-27T11:59:29.515Z,31.82
2018-06-27T12:01:59.330Z,31.91
2018-06-27T12:04:28.434Z,33.19
2018-06-27T12:06:57.537Z,30.70
2018-06-27T12:09:26.775Z,32.22
2018-06-27T12:11:55.891Z,32.04
2018-06-27T12:14:25.016Z,32.16
2018-06-27T12:16:54.303Z,33.33
2018-06-27T12:19:23.362Z,32.97
2018-06-27T12:21:52.439Z,32.47
2018-06-27T12:24:21.590Z,33.89
2018-06-27T12:26:51.039Z,33.49
2018-06-27T12:29:20.118Z,33.64
2018-06-27T12:31:49.279Z,34.65
2018-06-27T12:34:18.451Z,33.73
2018-06-27T12:36:47.547Z,31.88
2018-06-27T12:39:16.636Z,28.66
2018-06-27T12:41:45.749Z,25.72
2018-06-27T12:44:14.838Z,28.43
2018-06-27T12:46:44.104Z,31.70
2018-06-27T12:49:13.239Z,32.63
2018-06-27T12:51:43.543Z,34.31
2018-06-27T12:54:12.671Z,32.99
2018-06-27T12:56:41.891Z,32.06
2018-06-27T12:59:12.029Z,30.89
2018-06-27T13:01:41.174Z,32.02
2018-06-27T13:04:10.773Z,34.50
2018-06-27T13:06:39.863Z,34.75
2018-06-27T13:09:11.010Z,35.26
2018-06-27T13:11:41.160Z,31.88
2018-06-27T13:14:10.299Z,29.96
2018-06-27T13:16:39.539Z,31.58
2018-06-27T13:19:08.850Z,31.75
2018-06-27T13:21:38.051Z,33.08
2018-06-27T13:24:07.155Z,33.29
2018-06-27T13:26:36.246Z,33.96
2018-06-27T13:29:06.131Z,33.65
2018-06-27T13:31:36.254Z,34.70
2018-06-27T13:34:05.675Z,35.91
2018-06-27T13:36:34.788Z,33.09
2018-06-27T13:39:04.868Z,31.18
2018-06-27T13:41:34.455Z,31.30
2018-06-27T13:44:03.955Z,30.85
2018-06-27T13:46:33.573Z,31.01
2018-06-27T13:49:02.879Z,31.80
2018-06-27T13:51:32.922Z,32.49
2018-06-27T13:54:02.506Z,33.20
2018-06-27T13:56:31.610Z,33.43
2018-06-27T13:59:00.701Z,31.01
2018-06-27T14:01:29.815Z,29.76
2018-06-27T14:03:58.979Z,31.91
2018-06-27T14:06:28.083Z,31.90
2018-06-27T14:08:57.190Z,33.85
2018-06-27T14:11:26.291Z,35.75
2018-06-27T14:13:55.390Z,35.26
2018-06-27T14:16:24.951Z,35.57
2018-06-27T14:18:54.280Z,34.04
2018-06-27T14:21:23.440Z,32.46
2018-06-27T14:23:52.516Z,30.36
2018-06-27T14:26:22.479Z,31.77
2018-06-27T14:28:52.134Z,30.25
2018-06-27T14:31:21.498Z,29.08
2018-06-27T14:33:50.914Z,27.74
2018-06-27T14:36:20.235Z,27.08
2018-06-27T14:38:49.595Z,27.49
2018-06-27T14:41:19.595Z,31.12
2018-06-27T14:43:49.149Z,31.09
2018-06-27T14:46:18.492Z,29.24
2018-06-27T14:48:50.211Z,30.33
2018-06-27T14:51:19.674Z,30.02
2018-06-27T14:53:48.983Z,31.68
2018-06-27T14:56:18.102Z,32.63
2018-06-27T14:58:47.252Z,33.21
2018-06-27T15:01:17.983Z,32.99
2018-06-27T15:03:47.130Z,34.37
2018-06-27T15:06:16.251Z,32.05
2018-06-27T15:08:45.655Z,28.94
2018-06-27T15:11:15.103Z,28.02
2018-06-27T15:13:49.599Z,26.75
2018-06-27T15:16:19.763Z,26.42
2018-06-27T15:18:48.873Z,26.25
2018-06-27T15:21:18.027Z,28.55
2018-06-27T15:23:47.274Z,29.43
2018-06-27T15:26:16.351Z,30.26
2018-06-27T15:28:45.531Z,30.75
2018-06-27T15:31:14.450Z,31.04
2018-06-27T15:33:43.577Z,31.68
2018-06-27T15:36:13.215Z,31.79
2018-06-27T15:38:43.459Z,31.26
2018-06-27T15:41:12.607Z,29.96
2018-06-27T15:43:42.152Z,28.67
2018-06-27T15:46:11.477Z,27.17
2018-06-27T15:48:40.536Z,26.35
2018-06-27T15:51:09.651Z,25.97
2018-06-27T15:53:38.723Z,26.20
2018-06-27T15:56:07.830Z,26.11
2018-06-27T15:58:36.943Z,25.71
2018-06-27T16:01:06.370Z,25.23
2018-06-27T16:03:35.594Z,24.97
2018-06-27T16:06:05.235Z,25.93
2018-06-27T16:08:34.325Z,27.16
2018-06-27T16:11:03.453Z,27.89
2018-06-27T16:13:32.562Z,28.54
2018-06-27T16:16:01.747Z,28.76
2018-06-27T16:18:30.882Z,30.41
2018-06-27T16:21:00.753Z,30.80
2018-06-27T16:23:30.339Z,29.73
2018-06-27T16:25:59.459Z,31.20
2018-06-27T16:28:30.391Z,30.93
2018-06-27T16:31:00.335Z,30.98
2018-06-27T16:33:30.242Z,30.16
2018-06-27T16:36:00.112Z,29.08
2018-06-27T16:38:29.887Z,28.56
2018-06-27T16:40:59.307Z,29.00
2018-06-27T16:43:29.094Z,28.88
2018-06-27T16:45:58.222Z,28.47
2018-06-27T16:48:28.075Z,28.31
2018-06-27T16:50:57.735Z,27.84
2018-06-27T16:53:27.144Z,28.53
2018-06-27T16:55:57.410Z,28.99
2018-06-27T16:58:26.607Z,28.13
2018-06-27T17:00:55.847Z,27.97
2018-06-27T17:03:24.954Z,28.27
2018-06-27T17:05:54.591Z,27.51
2018-06-27T17:08:23.735Z,28.20
2018-06-27T17:10:53.131Z,28.43
2018-06-27T17:13:24.003Z,28.31
2018-06-27T17:15:53.868Z,27.41
2018-06-27T17:18:23.783Z,27.67
2018-06-27T17:20:52.938Z,27.72
2018-06-27T17:23:22.784Z,27.60
2018-06-27T17:25:52.559Z,26.68
2018-06-27T17:28:21.987Z,26.27
2018-06-27T17:30:51.788Z,26.39
2018-06-27T17:33:21.122Z,26.22
2018-06-27T17:35:50.814Z,26.08
2018-06-27T17:38:20.706Z,25.92
2018-06-27T17:40:50.459Z,25.53
2018-06-27T17:43:19.822Z,26.03
2018-06-27T17:45:49.887Z,26.08
2018-06-27T17:48:19.403Z,25.73
2018-06-27T17:50:49.519Z,25.42
2018-06-27T17:53:19.302Z,24.60
2018-06-27T17:55:49.246Z,24.38
2018-06-27T17:58:18.962Z,24.27
2018-06-27T18:00:48.151Z,24.56
2018-06-27T18:03:17.303Z,24.37
2018-06-27T18:05:46.387Z,24.28
2018-06-27T18:08:17.096Z,23.96
2018-06-27T18:10:46.208Z,23.69
2018-06-27T18:13:15.320Z,23.73
2018-06-27T18:15:44.758Z,23.65
2018-06-27T18:18:13.912Z,23.79
2018-06-27T18:20:43.380Z,23.93
2018-06-27T18:23:12.564Z,23.75
2018-06-27T18:25:42.386Z,23.57
2018-06-27T18:28:11.695Z,23.59
2018-06-27T18:30:41.214Z,23.51
2018-06-27T18:33:10.408Z,23.45
2018-06-27T18:35:39.519Z,23.70
2018-06-27T18:38:08.675Z,23.80
2018-06-27T18:40:37.770Z,23.41
2018-06-27T18:43:06.867Z,23.25
2018-06-27T18:45:35.999Z,22.93
2018-06-27T18:48:05.145Z,22.79
2018-06-27T18:50:34.943Z,22.67
2018-06-27T18:53:04.135Z,22.58
2018-06-27T18:55:33.951Z,22.37
2018-06-27T18:58:03.075Z,22.18
2018-06-27T19:00:32.179Z,21.95
2018-06-27T19:03:01.317Z,21.88
2018-06-27T19:05:30.398Z,21.79
2018-06-27T19:07:59.563Z,21.62
2018-06-27T19:10:31.895Z,21.45
2018-06-27T19:13:01.754Z,21.37
2018-06-27T19:15:31.662Z,21.17
2018-06-27T19:18:01.587Z,21.02
2018-06-27T19:20:30.763Z,20.89
2018-06-27T19:22:59.971Z,20.73
2018-06-27T19:25:29.343Z,20.69
2018-06-27T19:27:58.895Z,20.60
2018-06-27T19:30:28.362Z,20.50
2018-06-27T19:32:58.296Z,20.45
2018-06-27T19:35:29.722Z,20.45
2018-06-27T19:37:59.171Z,20.44
2018-06-27T19:40:29.971Z,20.42
2018-06-27T19:42:59.107Z,20.39
2018-06-27T19:45:31.979Z,20.31
2018-06-27T19:48:01.263Z,20.18
2018-06-27T19:50:30.831Z,20.10
2018-06-27T19:53:01.930Z,20.23
2018-06-27T19:55:32.104Z,20.10
2018-06-27T19:58:01.931Z,19.91
2018-06-27T20:00:34.219Z,19.82
2018-06-27T20:03:04.159Z,19.79
2018-06-27T20:05:34.936Z,19.85
2018-06-27T20:08:04.867Z,19.74
2018-06-27T20:10:34.515Z,19.63
2018-06-27T20:13:03.637Z,19.56
2018-06-27T20:15:32.647Z,19.57
2018-06-27T20:18:01.960Z,19.48
2018-06-27T20:20:31.099Z,19.28
2018-06-27T20:23:00.203Z,19.21
2018-06-27T20:25:31.754Z,19.19
2018-06-27T20:28:02.519Z,19.19
2018-06-27T20:30:31.659Z,19.16
2018-06-27T20:33:02.334Z,19.17
2018-06-27T20:35:31.446Z,19.25
2018-06-27T20:38:01.284Z,19.31
2018-06-27T20:40:32.979Z,19.34
2018-06-27T20:43:03.224Z,19.40
2018-06-27T20:45:36.142Z,19.39
2018-06-27T20:48:05.819Z,19.44
2018-06-27T20:50:34.943Z,19.42
2018-06-27T20:53:08.191Z,19.37
2018-06-27T20:55:37.291Z,19.29
2018-06-27T20:58:06.431Z,19.14
2018-06-27T21:00:35.575Z,19.19
2018-06-27T21:03:05.267Z,19.03
2018-06-27T21:05:34.358Z,18.98
2018-06-27T21:08:03.676Z,18.94
2018-06-27T21:10:32.678Z,18.66
2018-06-27T21:13:01.782Z,18.41
2018-06-27T21:15:30.896Z,18.18
2018-06-27T21:17:59.985Z,18.06
2018-06-27T21:20:30.070Z,18.01
2018-06-27T21:22:59.168Z,17.92
2018-06-27T21:25:28.285Z,17.76
2018-06-27T21:27:57.877Z,17.75
2018-06-27T21:30:26.987Z,17.74
2018-06-27T21:32:56.432Z,17.64
2018-06-27T21:35:25.554Z,17.56
2018-06-27T21:37:54.963Z,17.44
2018-06-27T21:40:24.034Z,17.60
2018-06-27T21:42:53.573Z,17.61
2018-06-27T21:45:23.191Z,17.71
2018-06-27T21:47:52.445Z,17.43
2018-06-27T21:50:21.723Z,17.32
2018-06-27T21:52:51.796Z,17.22
2018-06-27T21:55:20.855Z,17.16
2018-06-27T21:57:50.479Z,17.09
2018-06-27T22:00:24.010Z,17.29
2018-06-27T22:02:53.712Z,17.06
2018-06-27T22:05:22.819Z,16.79
2018-06-27T22:07:51.942Z,16.75
2018-06-27T22:10:22.461Z,16.51
2018-06-27T22:12:51.543Z,16.26
2018-06-27T22:15:20.646Z,16.22
2018-06-27T22:17:49.752Z,16.13
2018-06-27T22:20:18.871Z,16.03
2018-06-27T22:22:48.747Z,16.04
2018-06-27T22:25:18.247Z,15.90
2018-06-27T22:27:47.781Z,15.75
2018-06-27T22:30:17.163Z,15.64
2018-06-27T22:32:46.434Z,15.73
2018-06-27T22:35:15.806Z,15.79
2018-06-27T22:37:45.760Z,15.64
2018-06-27T22:40:14.844Z,15.90
2018-06-27T22:42:44.038Z,15.92
2018-06-27T22:45:13.915Z,16.00
2018-06-27T22:47:45.419Z,16.00
2018-06-27T22:50:14.515Z,15.80
2018-06-27T22:52:43.606Z,15.85
2018-06-27T22:55:12.749Z,15.80
2018-06-27T22:57:41.847Z,15.59
2018-06-27T23:00:12.529Z,15.55
2018-06-27T23:02:41.603Z,15.62
2018-06-27T23:05:10.743Z,15.74
2018-06-27T23:07:39.864Z,15.58
2018-06-27T23:10:08.975Z,15.45
2018-06-27T23:12:38.111Z,15.38
2018-06-27T23:15:07.295Z,15.40
2018-06-27T23:17:38.724Z,15.65
2018-06-27T23:20:07.840Z,15.52
2018-06-27T23:22:49.286Z,15.33
2018-06-27T23:25:18.786Z,15.06
2018-06-27T23:27:47.883Z,14.94
2018-06-27T23:30:17.030Z,14.79
2018-06-27T23:32:46.330Z,14.73
2018-06-27T23:35:15.675Z,14.65
2018-06-27T23:37:45.511Z,14.68
2018-06-27T23:40:15.291Z,14.50
2018-06-27T23:42:44.607Z,14.28
2018-06-27T23:45:14.332Z,14.30
2018-06-27T23:47:43.539Z,14.16
2018-06-27T23:50:13.331Z,14.06
2018-06-27T23:52:43.256Z,14.03
2018-06-27T23:55:13.143Z,13.92
2018-06-27T23:57:42.395Z,13.80
